sensor_id;sensor_type;location;lat;lon;timestamp;P1;durP1;ratioP1;P2;durP2;ratioP2
82401;SDS011;72040;55.842;37.384;2023-09-07T00:01:29;3.42;;;0.68;;
82401;SDS011;72040;55.842;37.384;2023-09-07T00:03:56;3.08;;;0.65;;
82401;SDS011;72040;55.842;37.384;2023-09-07T00:06:22;3.15;;;0.82;;
82401;SDS011;72040;55.842;37.384;2023-09-07T00:08:48;1.80;;;0.73;;
82401;SDS011;72040;55.842;37.384;2023-09-07T00:11:13;2.28;;;0.45;;
82401;SDS011;72040;55.842;37.384;2023-09-07T00:13:39;2.40;;;0.70;;
82401;SDS011;72040;55.842;37.384;2023-09-07T00:16:05;1.95;;;0.80;;
82401;SDS011;72040;55.842;37.384;2023-09-07T00:18:31;2.80;;;0.65;;
82401;SDS011;72040;55.842;37.384;2023-09-07T00:20:58;2.67;;;0.63;;
82401;SDS011;72040;55.842;37.384;2023-09-07T00:23:25;2.20;;;0.50;;
82401;SDS011;72040;55.842;37.384;2023-09-07T00:25:51;2.53;;;0.43;;
82401;SDS011;72040;55.842;37.384;2023-09-07T00:28:16;2.90;;;0.75;;
82401;SDS011;72040;55.842;37.384;2023-09-07T00:30:42;3.58;;;1.75;;
82401;SDS011;72040;55.842;37.384;2023-09-07T00:33:08;2.03;;;0.73;;
82401;SDS011;72040;55.842;37.384;2023-09-07T00:35:34;1.67;;;0.50;;
82401;SDS011;72040;55.842;37.384;2023-09-07T00:38:00;3.03;;;0.60;;
82401;SDS011;72040;55.842;37.384;2023-09-07T00:40:26;2.72;;;0.52;;
82401;SDS011;72040;55.842;37.384;2023-09-07T00:42:51;3.72;;;0.60;;
82401;SDS011;72040;55.842;37.384;2023-09-07T00:45:18;2.67;;;0.70;;
82401;SDS011;72040;55.842;37.384;2023-09-07T00:47:43;3.67;;;0.73;;
82401;SDS011;72040;55.842;37.384;2023-09-07T00:50:10;2.85;;;0.65;;
82401;SDS011;72040;55.842;37.384;2023-09-07T00:52:39;2.35;;;0.47;;
82401;SDS011;72040;55.842;37.384;2023-09-07T00:55:07;1.67;;;0.32;;
82401;SDS011;72040;55.842;37.384;2023-09-07T00:57:33;2.35;;;0.85;;
82401;SDS011;72040;55.842;37.384;2023-09-07T00:59:59;2.50;;;0.40;;
82401;SDS011;72040;55.842;37.384;2023-09-07T01:02:25;1.50;;;0.43;;
82401;SDS011;72040;55.842;37.384;2023-09-07T01:04:51;2.20;;;0.70;;
82401;SDS011;72040;55.842;37.384;2023-09-07T01:07:18;1.65;;;0.63;;
82401;SDS011;72040;55.842;37.384;2023-09-07T01:09:47;1.75;;;0.65;;
82401;SDS011;72040;55.842;37.384;2023-09-07T01:12:15;2.22;;;0.40;;
82401;SDS011;72040;55.842;37.384;2023-09-07T01:14:41;2.05;;;0.55;;
82401;SDS011;72040;55.842;37.384;2023-09-07T01:17:07;2.30;;;0.70;;
82401;SDS011;72040;55.842;37.384;2023-09-07T01:19:34;3.05;;;0.57;;
82401;SDS011;72040;55.842;37.384;2023-09-07T01:21:59;1.55;;;0.60;;
82401;SDS011;72040;55.842;37.384;2023-09-07T01:24:25;2.70;;;0.73;;
82401;SDS011;72040;55.842;37.384;2023-09-07T01:26:52;2.67;;;0.65;;
82401;SDS011;72040;55.842;37.384;2023-09-07T01:29:18;1.58;;;0.38;;
82401;SDS011;72040;55.842;37.384;2023-09-07T01:31:44;1.98;;;0.70;;
82401;SDS011;72040;55.842;37.384;2023-09-07T01:34:09;1.75;;;0.63;;
82401;SDS011;72040;55.842;37.384;2023-09-07T01:36:35;5.13;;;0.45;;
82401;SDS011;72040;55.842;37.384;2023-09-07T01:39:03;1.80;;;0.30;;
82401;SDS011;72040;55.842;37.384;2023-09-07T01:41:30;1.80;;;0.75;;
82401;SDS011;72040;55.842;37.384;2023-09-07T01:43:56;3.00;;;0.93;;
82401;SDS011;72040;55.842;37.384;2023-09-07T01:46:22;2.08;;;0.50;;
82401;SDS011;72040;55.842;37.384;2023-09-07T01:48:48;2.10;;;0.68;;
82401;SDS011;72040;55.842;37.384;2023-09-07T01:51:14;2.22;;;0.52;;
82401;SDS011;72040;55.842;37.384;2023-09-07T01:53:39;1.65;;;0.50;;
82401;SDS011;72040;55.842;37.384;2023-09-07T01:56:05;1.75;;;0.57;;
82401;SDS011;72040;55.842;37.384;2023-09-07T01:58:31;3.58;;;0.65;;
82401;SDS011;72040;55.842;37.384;2023-09-07T02:00:56;1.55;;;0.60;;
82401;SDS011;72040;55.842;37.384;2023-09-07T02:03:23;2.22;;;0.65;;
82401;SDS011;72040;55.842;37.384;2023-09-07T02:05:48;2.45;;;0.57;;
82401;SDS011;72040;55.842;37.384;2023-09-07T02:08:14;2.38;;;0.30;;
82401;SDS011;72040;55.842;37.384;2023-09-07T02:10:40;2.78;;;0.73;;
82401;SDS011;72040;55.842;37.384;2023-09-07T02:13:06;1.88;;;0.73;;
82401;SDS011;72040;55.842;37.384;2023-09-07T02:15:31;2.45;;;0.63;;
82401;SDS011;72040;55.842;37.384;2023-09-07T02:17:57;2.63;;;0.57;;
82401;SDS011;72040;55.842;37.384;2023-09-07T02:20:23;1.73;;;0.60;;
82401;SDS011;72040;55.842;37.384;2023-09-07T02:22:49;1.90;;;0.52;;
82401;SDS011;72040;55.842;37.384;2023-09-07T02:25:15;3.20;;;0.75;;
82401;SDS011;72040;55.842;37.384;2023-09-07T02:27:41;1.83;;;1.13;;
82401;SDS011;72040;55.842;37.384;2023-09-07T02:30:07;1.45;;;0.30;;
82401;SDS011;72040;55.842;37.384;2023-09-07T02:32:33;2.63;;;0.70;;
82401;SDS011;72040;55.842;37.384;2023-09-07T02:34:58;1.55;;;0.43;;
82401;SDS011;72040;55.842;37.384;2023-09-07T02:37:24;1.98;;;0.40;;
82401;SDS011;72040;55.842;37.384;2023-09-07T02:39:50;2.90;;;1.60;;
82401;SDS011;72040;55.842;37.384;2023-09-07T02:42:16;2.00;;;0.77;;
82401;SDS011;72040;55.842;37.384;2023-09-07T02:44:41;1.42;;;0.43;;
82401;SDS011;72040;55.842;37.384;2023-09-07T02:47:07;3.08;;;0.57;;
82401;SDS011;72040;55.842;37.384;2023-09-07T02:49:32;1.17;;;0.28;;
82401;SDS011;72040;55.842;37.384;2023-09-07T02:51:58;3.60;;;0.65;;
82401;SDS011;72040;55.842;37.384;2023-09-07T02:54:24;1.50;;;0.40;;
82401;SDS011;72040;55.842;37.384;2023-09-07T02:56:50;1.73;;;0.57;;
82401;SDS011;72040;55.842;37.384;2023-09-07T02:59:15;5.13;;;0.50;;
82401;SDS011;72040;55.842;37.384;2023-09-07T03:01:41;2.05;;;0.35;;
82401;SDS011;72040;55.842;37.384;2023-09-07T03:04:07;1.23;;;0.43;;
82401;SDS011;72040;55.842;37.384;2023-09-07T03:06:32;1.10;;;0.30;;
82401;SDS011;72040;55.842;37.384;2023-09-07T03:08:58;1.50;;;0.40;;
82401;SDS011;72040;55.842;37.384;2023-09-07T03:11:24;2.30;;;0.57;;
82401;SDS011;72040;55.842;37.384;2023-09-07T03:13:50;2.25;;;0.68;;
82401;SDS011;72040;55.842;37.384;2023-09-07T03:16:16;1.80;;;0.52;;
82401;SDS011;72040;55.842;37.384;2023-09-07T03:18:41;1.48;;;0.47;;
82401;SDS011;72040;55.842;37.384;2023-09-07T03:21:07;1.63;;;0.30;;
82401;SDS011;72040;55.842;37.384;2023-09-07T03:23:33;2.03;;;0.25;;
82401;SDS011;72040;55.842;37.384;2023-09-07T03:25:59;1.40;;;0.50;;
82401;SDS011;72040;55.842;37.384;2023-09-07T03:28:25;2.90;;;0.50;;
82401;SDS011;72040;55.842;37.384;2023-09-07T03:30:54;1.27;;;0.38;;
82401;SDS011;72040;55.842;37.384;2023-09-07T03:33:20;1.40;;;0.25;;
82401;SDS011;72040;55.842;37.384;2023-09-07T03:35:46;2.17;;;0.95;;
82401;SDS011;72040;55.842;37.384;2023-09-07T03:38:12;1.30;;;0.30;;
82401;SDS011;72040;55.842;37.384;2023-09-07T03:40:39;3.95;;;0.40;;
82401;SDS011;72040;55.842;37.384;2023-09-07T03:43:04;4.07;;;0.50;;
82401;SDS011;72040;55.842;37.384;2023-09-07T03:45:30;2.08;;;0.40;;
82401;SDS011;72040;55.842;37.384;2023-09-07T03:47:56;3.03;;;0.30;;
82401;SDS011;72040;55.842;37.384;2023-09-07T03:50:21;1.20;;;0.30;;
82401;SDS011;72040;55.842;37.384;2023-09-07T03:52:47;1.35;;;0.32;;
82401;SDS011;72040;55.842;37.384;2023-09-07T03:55:13;1.77;;;0.80;;
82401;SDS011;72040;55.842;37.384;2023-09-07T03:57:39;1.20;;;0.40;;
82401;SDS011;72040;55.842;37.384;2023-09-07T04:00:06;1.83;;;0.52;;
82401;SDS011;72040;55.842;37.384;2023-09-07T04:02:34;1.27;;;0.43;;
82401;SDS011;72040;55.842;37.384;2023-09-07T04:04:59;2.00;;;0.38;;
82401;SDS011;72040;55.842;37.384;2023-09-07T04:07:29;2.13;;;1.13;;
82401;SDS011;72040;55.842;37.384;2023-09-07T04:09:55;1.35;;;0.25;;
82401;SDS011;72040;55.842;37.384;2023-09-07T04:12:20;2.22;;;0.80;;
82401;SDS011;72040;55.842;37.384;2023-09-07T04:14:46;1.48;;;0.45;;
82401;SDS011;72040;55.842;37.384;2023-09-07T04:17:12;2.58;;;0.32;;
82401;SDS011;72040;55.842;37.384;2023-09-07T04:19:37;1.20;;;0.22;;
82401;SDS011;72040;55.842;37.384;2023-09-07T04:22:03;2.55;;;0.65;;
82401;SDS011;72040;55.842;37.384;2023-09-07T04:24:29;1.20;;;0.35;;
82401;SDS011;72040;55.842;37.384;2023-09-07T04:26:58;1.40;;;0.38;;
82401;SDS011;72040;55.842;37.384;2023-09-07T04:29:26;1.10;;;0.32;;
82401;SDS011;72040;55.842;37.384;2023-09-07T04:31:53;1.92;;;0.47;;
82401;SDS011;72040;55.842;37.384;2023-09-07T04:34:20;2.22;;;0.75;;
82401;SDS011;72040;55.842;37.384;2023-09-07T04:36:46;2.80;;;0.52;;
82401;SDS011;72040;55.842;37.384;2023-09-07T04:39:16;1.48;;;0.43;;
82401;SDS011;72040;55.842;37.384;2023-09-07T04:41:42;1.85;;;0.35;;
82401;SDS011;72040;55.842;37.384;2023-09-07T04:44:07;1.08;;;0.22;;
82401;SDS011;72040;55.842;37.384;2023-09-07T04:46:33;2.20;;;0.65;;
82401;SDS011;72040;55.842;37.384;2023-09-07T04:48:59;1.33;;;0.35;;
82401;SDS011;72040;55.842;37.384;2023-09-07T04:51:24;3.25;;;0.52;;
82401;SDS011;72040;55.842;37.384;2023-09-07T04:53:51;1.63;;;0.50;;
82401;SDS011;72040;55.842;37.384;2023-09-07T04:56:17;1.98;;;0.45;;
82401;SDS011;72040;55.842;37.384;2023-09-07T04:58:42;2.65;;;0.52;;
82401;SDS011;72040;55.842;37.384;2023-09-07T05:01:10;1.92;;;0.90;;
82401;SDS011;72040;55.842;37.384;2023-09-07T05:03:37;2.50;;;0.52;;
82401;SDS011;72040;55.842;37.384;2023-09-07T05:06:03;5.32;;;1.08;;
82401;SDS011;72040;55.842;37.384;2023-09-07T05:08:29;4.93;;;0.50;;
82401;SDS011;72040;55.842;37.384;2023-09-07T05:10:56;2.25;;;0.65;;
82401;SDS011;72040;55.842;37.384;2023-09-07T05:13:23;2.40;;;0.85;;
82401;SDS011;72040;55.842;37.384;2023-09-07T05:15:49;2.78;;;0.65;;
82401;SDS011;72040;55.842;37.384;2023-09-07T05:18:16;6.50;;;0.55;;
82401;SDS011;72040;55.842;37.384;2023-09-07T05:20:42;17.10;;;3.13;;
82401;SDS011;72040;55.842;37.384;2023-09-07T05:23:11;7.18;;;0.55;;
82401;SDS011;72040;55.842;37.384;2023-09-07T05:25:47;7.65;;;0.93;;
82401;SDS011;72040;55.842;37.384;2023-09-07T05:28:18;6.07;;;1.38;;
82401;SDS011;72040;55.842;37.384;2023-09-07T05:30:45;8.40;;;1.67;;
82401;SDS011;72040;55.842;37.384;2023-09-07T05:33:11;17.90;;;2.63;;
82401;SDS011;72040;55.842;37.384;2023-09-07T05:35:38;22.25;;;3.53;;
82401;SDS011;72040;55.842;37.384;2023-09-07T05:38:04;20.58;;;4.25;;
82401;SDS011;72040;55.842;37.384;2023-09-07T05:40:34;26.63;;;6.63;;
82401;SDS011;72040;55.842;37.384;2023-09-07T05:43:01;27.23;;;6.95;;
82401;SDS011;72040;55.842;37.384;2023-09-07T05:45:29;40.05;;;14.43;;
82401;SDS011;72040;55.842;37.384;2023-09-07T05:47:56;41.25;;;12.73;;
82401;SDS011;72040;55.842;37.384;2023-09-07T05:50:21;31.25;;;11.82;;
82401;SDS011;72040;55.842;37.384;2023-09-07T05:52:47;31.60;;;11.07;;
82401;SDS011;72040;55.842;37.384;2023-09-07T05:55:13;29.08;;;12.65;;
82401;SDS011;72040;55.842;37.384;2023-09-07T05:57:38;30.92;;;11.15;;
82401;SDS011;72040;55.842;37.384;2023-09-07T06:00:04;28.63;;;11.35;;
82401;SDS011;72040;55.842;37.384;2023-09-07T06:02:31;29.42;;;10.20;;
82401;SDS011;72040;55.842;37.384;2023-09-07T06:04:56;26.92;;;9.85;;
82401;SDS011;72040;55.842;37.384;2023-09-07T06:07:24;23.52;;;9.93;;
82401;SDS011;72040;55.842;37.384;2023-09-07T06:09:50;26.25;;;11.50;;
82401;SDS011;72040;55.842;37.384;2023-09-07T06:12:16;24.70;;;9.13;;
82401;SDS011;72040;55.842;37.384;2023-09-07T06:14:42;23.52;;;8.73;;
82401;SDS011;72040;55.842;37.384;2023-09-07T06:17:09;20.65;;;8.68;;
82401;SDS011;72040;55.842;37.384;2023-09-07T06:19:35;19.15;;;7.45;;
82401;SDS011;72040;55.842;37.384;2023-09-07T06:22:00;19.35;;;8.48;;
82401;SDS011;72040;55.842;37.384;2023-09-07T06:24:26;19.45;;;7.07;;
82401;SDS011;72040;55.842;37.384;2023-09-07T06:26:52;17.13;;;7.70;;
82401;SDS011;72040;55.842;37.384;2023-09-07T06:29:17;15.63;;;6.50;;
82401;SDS011;72040;55.842;37.384;2023-09-07T06:31:43;17.35;;;7.13;;
82401;SDS011;72040;55.842;37.384;2023-09-07T06:34:08;15.88;;;6.20;;
82401;SDS011;72040;55.842;37.384;2023-09-07T06:36:35;13.38;;;5.68;;
82401;SDS011;72040;55.842;37.384;2023-09-07T06:39:00;13.77;;;5.47;;
82401;SDS011;72040;55.842;37.384;2023-09-07T06:41:27;11.13;;;4.57;;
82401;SDS011;72040;55.842;37.384;2023-09-07T06:43:52;11.15;;;4.35;;
82401;SDS011;72040;55.842;37.384;2023-09-07T06:46:18;11.48;;;4.18;;
82401;SDS011;72040;55.842;37.384;2023-09-07T06:48:44;12.02;;;3.95;;
82401;SDS011;72040;55.842;37.384;2023-09-07T06:51:10;11.18;;;4.70;;
82401;SDS011;72040;55.842;37.384;2023-09-07T06:53:35;11.25;;;4.82;;
82401;SDS011;72040;55.842;37.384;2023-09-07T06:56:01;8.27;;;3.10;;
82401;SDS011;72040;55.842;37.384;2023-09-07T06:58:28;8.82;;;3.63;;
82401;SDS011;72040;55.842;37.384;2023-09-07T07:01:00;7.05;;;3.13;;
82401;SDS011;72040;55.842;37.384;2023-09-07T07:03:27;9.93;;;3.20;;
82401;SDS011;72040;55.842;37.384;2023-09-07T07:05:56;7.13;;;3.50;;
82401;SDS011;72040;55.842;37.384;2023-09-07T07:08:22;10.43;;;3.72;;
82401;SDS011;72040;55.842;37.384;2023-09-07T07:10:48;7.45;;;3.15;;
82401;SDS011;72040;55.842;37.384;2023-09-07T07:13:14;7.70;;;2.58;;
82401;SDS011;72040;55.842;37.384;2023-09-07T07:15:41;7.53;;;3.05;;
82401;SDS011;72040;55.842;37.384;2023-09-07T07:18:06;5.90;;;2.70;;
82401;SDS011;72040;55.842;37.384;2023-09-07T07:20:39;5.50;;;2.55;;
82401;SDS011;72040;55.842;37.384;2023-09-07T07:23:05;6.38;;;2.65;;
82401;SDS011;72040;55.842;37.384;2023-09-07T07:25:34;5.60;;;2.45;;
82401;SDS011;72040;55.842;37.384;2023-09-07T07:28:06;6.63;;;2.15;;
82401;SDS011;72040;55.842;37.384;2023-09-07T07:30:35;5.13;;;1.83;;
82401;SDS011;72040;55.842;37.384;2023-09-07T07:33:02;5.60;;;2.80;;
82401;SDS011;72040;55.842;37.384;2023-09-07T07:35:30;4.13;;;1.42;;
82401;SDS011;72040;55.842;37.384;2023-09-07T07:37:56;4.25;;;1.95;;
82401;SDS011;72040;55.842;37.384;2023-09-07T07:40:22;4.97;;;1.70;;
82401;SDS011;72040;55.842;37.384;2023-09-07T07:42:48;4.97;;;1.67;;
82401;SDS011;72040;55.842;37.384;2023-09-07T07:45:16;7.50;;;1.67;;
82401;SDS011;72040;55.842;37.384;2023-09-07T07:47:45;3.85;;;1.27;;
82401;SDS011;72040;55.842;37.384;2023-09-07T07:50:11;3.83;;;0.98;;
82401;SDS011;72040;55.842;37.384;2023-09-07T07:52:37;4.05;;;1.55;;
82401;SDS011;72040;55.842;37.384;2023-09-07T07:55:02;2.55;;;0.90;;
82401;SDS011;72040;55.842;37.384;2023-09-07T07:57:31;3.55;;;1.25;;
82401;SDS011;72040;55.842;37.384;2023-09-07T07:59:57;3.40;;;0.90;;
82401;SDS011;72040;55.842;37.384;2023-09-07T08:02:22;2.63;;;0.93;;
82401;SDS011;72040;55.842;37.384;2023-09-07T08:04:48;2.55;;;0.95;;
82401;SDS011;72040;55.842;37.384;2023-09-07T08:07:14;3.03;;;1.15;;
82401;SDS011;72040;55.842;37.384;2023-09-07T08:09:39;3.30;;;1.08;;
82401;SDS011;72040;55.842;37.384;2023-09-07T08:12:05;4.95;;;1.13;;
82401;SDS011;72040;55.842;37.384;2023-09-07T08:14:31;3.92;;;1.33;;
82401;SDS011;72040;55.842;37.384;2023-09-07T08:16:57;7.18;;;0.88;;
82401;SDS011;72040;55.842;37.384;2023-09-07T08:19:23;5.00;;;1.30;;
82401;SDS011;72040;55.842;37.384;2023-09-07T08:21:49;12.95;;;0.98;;
82401;SDS011;72040;55.842;37.384;2023-09-07T08:24:15;16.30;;;1.40;;
82401;SDS011;72040;55.842;37.384;2023-09-07T08:26:41;6.55;;;0.52;;
82401;SDS011;72040;55.842;37.384;2023-09-07T08:29:07;3.97;;;0.93;;
82401;SDS011;72040;55.842;37.384;2023-09-07T08:31:40;2.88;;;0.70;;
82401;SDS011;72040;55.842;37.384;2023-09-07T08:34:06;4.47;;;0.70;;
82401;SDS011;72040;55.842;37.384;2023-09-07T08:36:34;5.60;;;0.50;;
82401;SDS011;72040;55.842;37.384;2023-09-07T08:39:00;3.78;;;0.47;;
82401;SDS011;72040;55.842;37.384;2023-09-07T08:41:31;7.07;;;0.70;;
82401;SDS011;72040;55.842;37.384;2023-09-07T08:43:58;1.85;;;0.20;;
82401;SDS011;72040;55.842;37.384;2023-09-07T08:46:25;3.33;;;0.30;;
82401;SDS011;72040;55.842;37.384;2023-09-07T08:48:51;2.83;;;0.50;;
82401;SDS011;72040;55.842;37.384;2023-09-07T08:51:20;4.32;;;0.55;;
82401;SDS011;72040;55.842;37.384;2023-09-07T08:53:46;9.85;;;0.90;;
82401;SDS011;72040;55.842;37.384;2023-09-07T08:56:12;2.67;;;0.70;;
82401;SDS011;72040;55.842;37.384;2023-09-07T08:58:39;2.72;;;0.60;;
82401;SDS011;72040;55.842;37.384;2023-09-07T09:01:07;2.65;;;0.40;;
82401;SDS011;72040;55.842;37.384;2023-09-07T09:03:36;6.18;;;0.68;;
82401;SDS011;72040;55.842;37.384;2023-09-07T09:06:02;2.85;;;0.80;;
82401;SDS011;72040;55.842;37.384;2023-09-07T09:08:40;1.60;;;0.52;;
82401;SDS011;72040;55.842;37.384;2023-09-07T09:11:17;5.50;;;0.50;;
82401;SDS011;72040;55.842;37.384;2023-09-07T09:13:44;9.90;;;0.50;;
82401;SDS011;72040;55.842;37.384;2023-09-07T09:16:10;5.50;;;0.43;;
82401;SDS011;72040;55.842;37.384;2023-09-07T09:18:37;2.78;;;0.60;;
82401;SDS011;72040;55.842;37.384;2023-09-07T09:21:04;8.63;;;0.70;;
82401;SDS011;72040;55.842;37.384;2023-09-07T09:23:42;1.92;;;0.75;;
82401;SDS011;72040;55.842;37.384;2023-09-07T09:26:08;1.55;;;0.70;;
82401;SDS011;72040;55.842;37.384;2023-09-07T09:28:34;5.50;;;0.32;;
82401;SDS011;72040;55.842;37.384;2023-09-07T09:31:01;2.17;;;0.35;;
82401;SDS011;72040;55.842;37.384;2023-09-07T09:33:29;1.58;;;0.40;;
82401;SDS011;72040;55.842;37.384;2023-09-07T09:35:56;1.67;;;0.20;;
82401;SDS011;72040;55.842;37.384;2023-09-07T09:38:22;2.40;;;0.30;;
82401;SDS011;72040;55.842;37.384;2023-09-07T09:40:48;1.23;;;0.30;;
82401;SDS011;72040;55.842;37.384;2023-09-07T09:43:14;2.97;;;0.28;;
82401;SDS011;72040;55.842;37.384;2023-09-07T09:45:39;3.10;;;0.20;;
82401;SDS011;72040;55.842;37.384;2023-09-07T09:48:05;3.28;;;0.52;;
82401;SDS011;72040;55.842;37.384;2023-09-07T09:50:32;1.30;;;0.30;;
82401;SDS011;72040;55.842;37.384;2023-09-07T09:53:06;1.80;;;0.60;;
82401;SDS011;72040;55.842;37.384;2023-09-07T09:55:36;1.40;;;0.32;;
82401;SDS011;72040;55.842;37.384;2023-09-07T09:58:02;1.10;;;0.25;;
82401;SDS011;72040;55.842;37.384;2023-09-07T10:00:28;2.00;;;0.65;;
82401;SDS011;72040;55.842;37.384;2023-09-07T10:03:02;1.88;;;0.40;;
82401;SDS011;72040;55.842;37.384;2023-09-07T10:05:31;1.70;;;0.73;;
82401;SDS011;72040;55.842;37.384;2023-09-07T10:08:00;4.70;;;0.80;;
82401;SDS011;72040;55.842;37.384;2023-09-07T10:10:35;6.32;;;1.48;;
82401;SDS011;72040;55.842;37.384;2023-09-07T10:13:02;2.67;;;0.63;;
82401;SDS011;72040;55.842;37.384;2023-09-07T10:15:29;7.00;;;0.85;;
82401;SDS011;72040;55.842;37.384;2023-09-07T10:18:11;5.20;;;0.90;;
82401;SDS011;72040;55.842;37.384;2023-09-07T10:20:58;2.90;;;0.95;;
82401;SDS011;72040;55.842;37.384;2023-09-07T10:23:43;3.63;;;0.50;;
82401;SDS011;72040;55.842;37.384;2023-09-07T10:26:14;2.80;;;0.40;;
82401;SDS011;72040;55.842;37.384;2023-09-07T10:28:41;2.33;;;0.73;;
82401;SDS011;72040;55.842;37.384;2023-09-07T10:31:17;3.58;;;0.65;;
82401;SDS011;72040;55.842;37.384;2023-09-07T10:33:44;2.58;;;0.60;;
82401;SDS011;72040;55.842;37.384;2023-09-07T10:36:24;1.83;;;0.65;;
82401;SDS011;72040;55.842;37.384;2023-09-07T10:38:51;4.10;;;0.63;;
82401;SDS011;72040;55.842;37.384;2023-09-07T10:41:20;1.95;;;0.60;;
82401;SDS011;72040;55.842;37.384;2023-09-07T10:43:56;5.95;;;0.40;;
82401;SDS011;72040;55.842;37.384;2023-09-07T10:46:23;3.95;;;0.47;;
82401;SDS011;72040;55.842;37.384;2023-09-07T10:48:49;5.38;;;0.70;;
82401;SDS011;72040;55.842;37.384;2023-09-07T10:51:19;4.07;;;0.40;;
82401;SDS011;72040;55.842;37.384;2023-09-07T10:53:45;1.90;;;0.52;;
82401;SDS011;72040;55.842;37.384;2023-09-07T10:56:12;6.63;;;0.50;;
82401;SDS011;72040;55.842;37.384;2023-09-07T10:58:40;6.85;;;1.58;;
82401;SDS011;72040;55.842;37.384;2023-09-07T11:01:07;3.65;;;0.95;;
82401;SDS011;72040;55.842;37.384;2023-09-07T11:03:34;3.63;;;1.10;;
82401;SDS011;72040;55.842;37.384;2023-09-07T11:08:32;3.90;;;0.65;;
82401;SDS011;72040;55.842;37.384;2023-09-07T11:10:59;2.13;;;0.73;;
82401;SDS011;72040;55.842;37.384;2023-09-07T11:13:26;2.13;;;1.20;;
82401;SDS011;72040;55.842;37.384;2023-09-07T11:15:55;3.30;;;0.63;;
82401;SDS011;72040;55.842;37.384;2023-09-07T11:18:21;4.82;;;0.60;;
82401;SDS011;72040;55.842;37.384;2023-09-07T11:20:48;3.70;;;0.60;;
82401;SDS011;72040;55.842;37.384;2023-09-07T11:23:16;3.30;;;0.85;;
82401;SDS011;72040;55.842;37.384;2023-09-07T11:25:42;1.83;;;0.82;;
82401;SDS011;72040;55.842;37.384;2023-09-07T11:28:08;3.03;;;1.00;;
82401;SDS011;72040;55.842;37.384;2023-09-07T11:30:34;5.20;;;0.70;;
82401;SDS011;72040;55.842;37.384;2023-09-07T11:33:01;3.30;;;0.82;;
82401;SDS011;72040;55.842;37.384;2023-09-07T11:35:27;3.90;;;0.73;;
82401;SDS011;72040;55.842;37.384;2023-09-07T11:37:53;2.33;;;0.93;;
82401;SDS011;72040;55.842;37.384;2023-09-07T11:40:19;3.42;;;0.77;;
82401;SDS011;72040;55.842;37.384;2023-09-07T11:42:45;3.20;;;0.57;;
82401;SDS011;72040;55.842;37.384;2023-09-07T11:45:10;3.22;;;1.10;;
82401;SDS011;72040;55.842;37.384;2023-09-07T11:47:38;2.17;;;0.70;;
82401;SDS011;72040;55.842;37.384;2023-09-07T11:50:05;4.68;;;0.90;;
82401;SDS011;72040;55.842;37.384;2023-09-07T11:52:31;2.83;;;0.85;;
82401;SDS011;72040;55.842;37.384;2023-09-07T11:54:57;2.65;;;0.88;;
82401;SDS011;72040;55.842;37.384;2023-09-07T11:57:23;3.13;;;0.95;;
82401;SDS011;72040;55.842;37.384;2023-09-07T11:59:49;5.53;;;0.93;;
82401;SDS011;72040;55.842;37.384;2023-09-07T12:02:15;2.78;;;0.82;;
82401;SDS011;72040;55.842;37.384;2023-09-07T12:04:43;2.47;;;0.70;;
82401;SDS011;72040;55.842;37.384;2023-09-07T12:07:09;5.00;;;1.08;;
82401;SDS011;72040;55.842;37.384;2023-09-07T12:09:35;3.10;;;0.65;;
82401;SDS011;72040;55.842;37.384;2023-09-07T12:12:01;5.45;;;0.80;;
82401;SDS011;72040;55.842;37.384;2023-09-07T12:14:28;2.40;;;0.90;;
82401;SDS011;72040;55.842;37.384;2023-09-07T12:16:54;8.00;;;2.33;;
82401;SDS011;72040;55.842;37.384;2023-09-07T12:19:20;4.05;;;0.80;;
82401;SDS011;72040;55.842;37.384;2023-09-07T12:21:46;4.15;;;1.40;;
82401;SDS011;72040;55.842;37.384;2023-09-07T12:24:12;6.05;;;1.15;;
82401;SDS011;72040;55.842;37.384;2023-09-07T12:26:37;18.10;;;5.35;;
82401;SDS011;72040;55.842;37.384;2023-09-07T12:29:03;22.05;;;4.47;;
82401;SDS011;72040;55.842;37.384;2023-09-07T12:31:29;15.20;;;3.97;;
82401;SDS011;72040;55.842;37.384;2023-09-07T12:33:56;11.75;;;3.60;;
82401;SDS011;72040;55.842;37.384;2023-09-07T12:36:22;13.43;;;4.68;;
82401;SDS011;72040;55.842;37.384;2023-09-07T12:38:48;11.50;;;2.35;;
82401;SDS011;72040;55.842;37.384;2023-09-07T12:41:14;10.95;;;3.13;;
82401;SDS011;72040;55.842;37.384;2023-09-07T12:43:41;6.32;;;2.40;;
82401;SDS011;72040;55.842;37.384;2023-09-07T12:46:08;10.27;;;2.83;;
82401;SDS011;72040;55.842;37.384;2023-09-07T12:48:34;11.40;;;2.20;;
82401;SDS011;72040;55.842;37.384;2023-09-07T12:51:00;10.32;;;2.67;;
82401;SDS011;72040;55.842;37.384;2023-09-07T12:53:26;9.38;;;3.45;;
82401;SDS011;72040;55.842;37.384;2023-09-07T12:55:55;6.55;;;1.50;;
82401;SDS011;72040;55.842;37.384;2023-09-07T12:58:20;7.03;;;1.42;;
82401;SDS011;72040;55.842;37.384;2023-09-07T13:00:46;6.80;;;1.55;;
82401;SDS011;72040;55.842;37.384;2023-09-07T13:03:16;4.28;;;1.55;;
82401;SDS011;72040;55.842;37.384;2023-09-07T13:05:43;7.20;;;1.55;;
82401;SDS011;72040;55.842;37.384;2023-09-07T13:08:09;3.85;;;1.52;;
82401;SDS011;72040;55.842;37.384;2023-09-07T13:10:35;5.53;;;1.50;;
82401;SDS011;72040;55.842;37.384;2023-09-07T13:13:01;6.55;;;1.15;;
82401;SDS011;72040;55.842;37.384;2023-09-07T13:15:26;4.57;;;1.17;;
82401;SDS011;72040;55.842;37.384;2023-09-07T13:17:52;4.10;;;0.82;;
82401;SDS011;72040;55.842;37.384;2023-09-07T13:20:18;5.35;;;0.95;;
82401;SDS011;72040;55.842;37.384;2023-09-07T13:22:45;8.23;;;2.45;;
82401;SDS011;72040;55.842;37.384;2023-09-07T13:25:12;22.17;;;2.63;;
82401;SDS011;72040;55.842;37.384;2023-09-07T13:27:37;6.70;;;1.25;;
82401;SDS011;72040;55.842;37.384;2023-09-07T13:30:04;5.97;;;0.75;;
82401;SDS011;72040;55.842;37.384;2023-09-07T13:32:31;4.90;;;0.95;;
82401;SDS011;72040;55.842;37.384;2023-09-07T13:34:57;9.68;;;1.48;;
82401;SDS011;72040;55.842;37.384;2023-09-07T13:37:23;7.32;;;1.20;;
82401;SDS011;72040;55.842;37.384;2023-09-07T13:39:49;2.88;;;0.82;;
82401;SDS011;72040;55.842;37.384;2023-09-07T13:42:14;3.97;;;1.55;;
82401;SDS011;72040;55.842;37.384;2023-09-07T13:44:41;6.97;;;1.02;;
82401;SDS011;72040;55.842;37.384;2023-09-07T13:47:06;3.75;;;0.93;;
82401;SDS011;72040;55.842;37.384;2023-09-07T13:49:33;6.53;;;1.00;;
82401;SDS011;72040;55.842;37.384;2023-09-07T13:51:59;4.60;;;0.90;;
82401;SDS011;72040;55.842;37.384;2023-09-07T13:54:25;4.22;;;0.80;;
82401;SDS011;72040;55.842;37.384;2023-09-07T13:56:51;2.65;;;0.50;;
82401;SDS011;72040;55.842;37.384;2023-09-07T13:59:16;2.28;;;0.65;;
82401;SDS011;72040;55.842;37.384;2023-09-07T14:01:42;2.85;;;0.80;;
82401;SDS011;72040;55.842;37.384;2023-09-07T14:04:08;3.83;;;1.10;;
82401;SDS011;72040;55.842;37.384;2023-09-07T14:06:33;4.03;;;0.70;;
82401;SDS011;72040;55.842;37.384;2023-09-07T14:08:59;3.00;;;0.82;;
82401;SDS011;72040;55.842;37.384;2023-09-07T14:11:25;4.35;;;0.63;;
82401;SDS011;72040;55.842;37.384;2023-09-07T14:13:51;2.58;;;0.63;;
82401;SDS011;72040;55.842;37.384;2023-09-07T14:16:17;5.32;;;1.02;;
82401;SDS011;72040;55.842;37.384;2023-09-07T14:18:45;6.03;;;0.93;;
82401;SDS011;72040;55.842;37.384;2023-09-07T14:21:10;8.02;;;0.93;;
82401;SDS011;72040;55.842;37.384;2023-09-07T14:23:37;2.60;;;0.95;;
82401;SDS011;72040;55.842;37.384;2023-09-07T14:26:03;3.60;;;0.95;;
82401;SDS011;72040;55.842;37.384;2023-09-07T14:28:28;2.08;;;0.70;;
82401;SDS011;72040;55.842;37.384;2023-09-07T14:30:54;2.95;;;0.60;;
82401;SDS011;72040;55.842;37.384;2023-09-07T14:33:20;3.00;;;0.60;;